Accueil
METAR-TAF:

METAR-TAF

Aéroports :

Base aérienne de Florennes

Florennes, Belgique

latitude: 50-14N, longitude: 004-39E, altitude: 279 m

Observation

Le bulletin a été fait il y a 25 minutes, à 15:25 UTC
Vent 14 kt de nord
Température 14°C
Humidité 51%
Pression 1024 hPa
Visibilité 10 km ou plus
Quelques nuages à une hauteur de 4500 ft
Nuages épars à une hauteur de 25000 ft

METAR: EBFS 211525Z 35014KT 9999 FEW045 SCT250 14/04 Q1024 BLU BLU

Heure: 17:50 (15:50 UTC)

Prévision

Le bulletin a été fait il y a 4 heures et 9 minutes, à 11:41 UTC
Prévision valable du 21 à 13 UTC au 21 à 22 UTC
Vent 15 kt de ouest/sud-ouest
Visibilité 10 km ou plus
Quelques nuages à une hauteur de 2000 ft
Nuages épars à une hauteur de 3000 ft

TAF: EBFS 211141Z 2113/2122 24015KT 9999 FEW020 SCT030

Observations et prévisions météorologiques de plus de 4000 aéroports (messages METAR et TAF).

Les stations disponibles sont représentées par des disques jaunes et rouges sur la carte.

Passer la souris dessus pour voir le nom de la station.

Cliquer dessus pour voir les observations et prévisions météorologiques.

Pour changer de carte: cliquez sur les boutons verts avec une croix noire pour zoomer, sur le bouton vert avec un tiret pour effectuer un zoom arrière, ou sur les flèches vertes pour les cartes adjacentes.


METAR-TAF: